F\v Tenia — FPMH — position and weather

sailwx.info

Track history (hours):
 
Tides and Currents Weather Stations Pressure Air Temp Water Temp Dewpoint Dewpoint Depression Visibility Wind Speed Wind Dir Waves Ship Positions

F\v Tenia

Last reported at 2016-Jul-26 16:24 UTC. Time now 2016-Jul-30 20:42 UTC.
Position N 51°11' W 010°40'.

Length 22 m; draft 4 m.

Type: Fishing. MMSI: 227575000.

Date/timePositionNaut miles runAvg speedWind from/ knotsBaromVisibWave heightAir tempDewpointWater temp
2016-Jul-26 16:24N 51°11' W 010°40'30 7.2
2016-Jul-26 12:18N 51°30' W 010°04'5 0.6
2016-Jul-26 04:21N 51°34' W 009°59'7 8.5
2016-Jul-26 03:32N 51°29' W 010°06'  
2016-Jul-22 12:23N 51°31' W 010°04'8 0.7
2016-Jul-22 02:08N 51°36' W 009°56'1 1.3
2016-Jul-22 01:30N 51°36' W 009°57'4 4.6
2016-Jul-22 00:33N 51°32' W 010°01'8 7.5
2016-Jul-21 23:33N 51°27' W 010°09'  
2016-Jul-19 08:32N 50°46' W 011°09'25 1.8
2016-Jul-18 18:20N 51°05' W 010°44'9 8.8
2016-Jul-18 17:22N 51°11' W 010°34'7 8.7
2016-Jul-18 16:34N 51°17' W 010°27'10 8.6
2016-Jul-18 15:24N 51°24' W 010°16'18 1.8
2016-Jul-18 05:29N 51°37' W 009°56'8 8.9
2016-Jul-18 04:33N 51°31' W 010°04'9 9.3
2016-Jul-18 03:34N 51°24' W 010°14'9 9.2
2016-Jul-18 02:34N 51°17' W 010°24'9 9.0
2016-Jul-18 01:33N 51°11' W 010°34'9 8.8
2016-Jul-18 00:34N 51°05' W 010°44'9 8.9
2016-Jul-17 23:34N 50°58' W 010°54'9 8.7
2016-Jul-17 22:34N 50°51' W 011°03'8 8.0
2016-Jul-17 21:33N 50°45' W 011°11'  
Track history (hours):
 
Tides and Currents Weather Stations Pressure Air Temp Water Temp Dewpoint Dewpoint Depression Visibility Wind Speed Wind Dir Waves Ship Positions

F\v Tenia

Last reported at 2016-Jul-26 16:24 UTC. Time now 2016-Jul-30 20:42 UTC.
Position N 51°11' W 010°40'.

Length 22 m; draft 4 m.

Type: Fishing. MMSI: 227575000.

Date/timePositionNaut miles runAvg speedWind from/ knotsBaromVisibWave heightAir tempDewpointWater temp
2016-Jul-26 16:24N 51°11' W 010°40'30 7.2
2016-Jul-26 12:18N 51°30' W 010°04'5 0.6
2016-Jul-26 04:21N 51°34' W 009°59'7 8.5
2016-Jul-26 03:32N 51°29' W 010°06'  
2016-Jul-22 12:23N 51°31' W 010°04'8 0.7
2016-Jul-22 02:08N 51°36' W 009°56'1 1.3
2016-Jul-22 01:30N 51°36' W 009°57'4 4.6
2016-Jul-22 00:33N 51°32' W 010°01'8 7.5
2016-Jul-21 23:33N 51°27' W 010°09'  
2016-Jul-19 08:32N 50°46' W 011°09'25 1.8
2016-Jul-18 18:20N 51°05' W 010°44'9 8.8
2016-Jul-18 17:22N 51°11' W 010°34'7 8.7
2016-Jul-18 16:34N 51°17' W 010°27'10 8.6
2016-Jul-18 15:24N 51°24' W 010°16'18 1.8
2016-Jul-18 05:29N 51°37' W 009°56'8 8.9
2016-Jul-18 04:33N 51°31' W 010°04'9 9.3
2016-Jul-18 03:34N 51°24' W 010°14'9 9.2
2016-Jul-18 02:34N 51°17' W 010°24'9 9.0
2016-Jul-18 01:33N 51°11' W 010°34'9 8.8
2016-Jul-18 00:34N 51°05' W 010°44'9 8.9
2016-Jul-17 23:34N 50°58' W 010°54'9 8.7
2016-Jul-17 22:34N 50°51' W 011°03'8 8.0
2016-Jul-17 21:33N 50°45' W 011°11'  

Dump ship's entire track history